Port Heiden Airport
PAPH : rendu visible

Aérodrome :











RETROUVEZ-NOUS SUR...

 
LOGIN :

S'inscrire | Disclaimer

   EN    FR    IT 

 









Légende :    VFR   VFR Marginal   IFR   IFR Intensif   IFR Très Intensif
Visi : 
Plafond : 
>= 8 km
>= 3000ft
5 à 8 km
1000 à 3000 ft
1500m à 5 km
500 à 1000 ft
800 à 1500m
200 à 500 ft
< 800m
< 200 ft
Symboles :   Orages  Brouillard  Fortes neiges  Fortes précipitations  Vent > 20 kt






- Altitude de l'aérodrome : 95 ft
- Code IATA : PTH


PAPH - Port Heiden

DERNIER METAR :
  • 271156Z AUTO 05006KT 10SM OVC004 M07/M08 A2966 RMK AO2 SLP044 T10671078 11067 21072 58008 FZRANO

METARs EXPIRÉS :
  • 271056Z AUTO 05003KT 10SM OVC004 M07/M08 A2973 RMK AO2 SLP068 T10671078 FZRANO
  • 270956Z AUTO 00000KT 9SM OVC004 M07/M08 A2977 RMK AO2 SLP084 T10671078 FZRANO
  • 270856Z AUTO 00000KT 5SM BR OVC004 M07/M08 A2968 RMK AO2 SLP052 T10671078 58020 FZRANO

TAF N/A



MET'MAP, la Météo Aéronautique d'un coup d'oeil ! - Copyright ORBIFLY Décembre 2007 - Disclaimer

ORBIFLY MET'MAP TEAM :

Programmation & Développement : Alexandra Zaïnal
Sur une idée originale de : Baudouin d'Aumeries
Assistance à la programmation : Marc-Olivier Méhu
Soutien technique & logistique : Manuel Goepfert

Contact : metmap@orbifly.com




SOURCES & CREDITS :

   NOAA       Earth
Advisory